YKK weather

Public forecast

Using degrees Celsius for public forecast. Weather courtesy of forecast.io.

Closest aviation weather report (METAR) to Kitkatla Seaplane Base

Closest report is Prince Rupert Airport, 29.2 nm (54.1 km) N. Retrieved 2020/08/14 01:00 UTC (50 minutes ago):

CYPR 140100Z AUTO 11005KT 9SM OVC038 15/11 A3010 RMK SLP196

Closest aviation forecast (TAF) to Kitkatla Seaplane Base

Closest forecast is Prince Rupert Airport, 29.2 nm (54.1 km) N. Retrieved 2020-08-14 01:39 UTC (11 minutes ago):

TAF CYPR 140038Z 1401/1413 16006KT P6SM SCT015 OVC030 TEMPO 1401/1405 P6SM -RA BKN015 OVC030 FM140500 14010G20KT P6SM -RA SCT006 OVC020 TEMPO 1405/1413 2SM RA BR OVC006 RMK FCST BASED ON AUTO OBS NXT FCST BY 140700Z